Time;durP1;ratioP1;P1;durP2;ratioP2;P2;SDS_P1;SDS_P2;PMS_P1;PMS_P2;Temp;Humidity;BMP_temperature;BMP_pressure;BME280_temperature;BME280_humidity;BME280_pressure;Samples;Min_cycle;Max_cycle;Signal;HPM_P1;HPM_P2
2022/05/16 00:00:26;;;;;;;18.30;16.40;;;20.90;65.70;;;;;;5010999;28;20026;-79
2022/05/16 00:02:53;;;;;;;20.67;16.35;;;20.90;65.70;;;;;;5011997;28;20471;-79
2022/05/16 00:05:19;;;;;;;17.75;16.15;;;20.90;65.60;;;;;;5012120;28;20042;-79
2022/05/16 00:07:45;;;;;;;18.98;17.02;;;20.90;65.30;;;;;;5012506;28;20041;-79
2022/05/16 00:10:12;;;;;;;18.45;16.63;;;20.90;65.30;;;;;;5012517;28;20022;-79
2022/05/16 00:12:38;;;;;;;17.98;16.13;;;20.90;66.20;;;;;;4994897;28;20045;-79
2022/05/16 00:15:04;;;;;;;18.42;16.63;;;20.90;65.20;;;;;;4991703;28;20034;-78
2022/05/16 00:17:30;;;;;;;18.17;16.67;;;21.00;65.00;;;;;;5011844;28;20030;-79
2022/05/16 00:19:57;;;;;;;18.02;16.33;;;20.90;65.20;;;;;;5012231;28;20038;-79
2022/05/16 00:22:25;;;;;;;18.90;16.98;;;20.80;65.60;;;;;;5013312;28;20021;-79
2022/05/16 00:24:51;;;;;;;18.95;17.20;;;20.70;65.70;;;;;;5007431;28;20022;-79
2022/05/16 00:27:17;;;;;;;18.60;16.70;;;20.80;65.40;;;;;;5011867;28;20056;-79
2022/05/16 00:29:43;;;;;;;18.63;16.90;;;20.90;65.40;;;;;;5011560;28;20515;-79
2022/05/16 00:32:09;;;;;;;17.88;16.30;;;20.90;65.30;;;;;;5011640;28;20030;-79
2022/05/16 00:34:36;;;;;;;17.17;15.60;;;20.90;65.10;;;;;;4995413;28;20390;-79
2022/05/16 00:37:03;;;;;;;18.33;16.80;;;20.80;65.20;;;;;;4993081;28;20097;-79
2022/05/16 00:39:29;;;;;;;17.73;16.15;;;20.80;65.20;;;;;;5011786;28;20391;-79
2022/05/16 00:41:55;;;;;;;18.13;16.42;;;20.80;64.90;;;;;;5012314;28;20054;-79
2022/05/16 00:44:21;;;;;;;18.00;16.40;;;20.90;65.00;;;;;;5010982;28;20029;-79
2022/05/16 00:46:48;;;;;;;17.98;16.27;;;20.80;65.00;;;;;;5011602;28;20049;-79
2022/05/16 00:49:30;;;;;;;18.05;16.15;;;20.80;65.00;;;;;;5011931;28;20017;-79
2022/05/16 00:52:03;;;;;;;17.92;16.33;;;20.70;65.20;;;;;;5007912;28;20509;-79
2022/05/16 00:54:39;;;;;;;17.92;16.35;;;20.80;65.20;;;;;;5013613;28;20037;-79
2022/05/16 00:57:08;;;;;;;17.70;16.15;;;20.70;65.00;;;;;;5011659;28;20029;-79
2022/05/16 01:00:02;;;;;;;17.92;16.23;;;20.80;64.90;;;;;;5011962;28;20465;-79
2022/05/16 01:05:13;;;;;;;17.48;16.00;;;20.80;64.90;;;;;;5012001;28;20037;-79
2022/05/16 01:07:41;;;;;;;17.95;16.52;;;20.70;65.60;;;;;;5008341;28;20053;-79
2022/05/16 01:10:08;;;;;;;18.75;17.02;;;20.80;64.90;;;;;;4995088;28;20034;-79
2022/05/16 01:12:36;;;;;;;18.38;16.60;;;20.70;65.00;;;;;;4992867;28;20061;-79
2022/05/16 01:15:36;;;;;;;18.58;16.85;;;20.70;65.20;;;;;;5010019;28;20470;-79
2022/05/16 01:18:04;;;;;;;17.60;16.08;;;20.70;65.30;;;;;;5010720;28;20033;-79
2022/05/16 01:21:05;;;;;;;17.75;16.02;;;20.70;65.20;;;;;;5011560;28;20021;-79
2022/05/16 01:23:39;;;;;;;18.08;16.42;;;20.70;65.40;;;;;;5012377;28;20030;-79
2022/05/16 01:26:13;;;;;;;17.33;15.98;;;20.60;65.20;;;;;;5011085;28;20041;-79
2022/05/16 01:28:40;;;;;;;17.80;16.20;;;20.60;65.60;;;;;;4995428;28;20042;-79
2022/05/16 01:31:06;;;;;;;17.33;15.93;;;20.30;66.70;;;;;;5010850;28;20065;-79
2022/05/16 01:33:32;;;;;;;18.42;16.63;;;20.00;67.30;;;;;;5010687;28;20102;-79
2022/05/16 01:35:58;;;;;;;18.67;16.90;;;19.90;67.90;;;;;;4994784;28;20041;-79
2022/05/16 01:38:28;;;;;;;19.42;17.00;;;19.90;68.10;;;;;;5011200;28;20030;-79
2022/05/16 01:40:56;;;;;;;18.50;16.77;;;19.80;68.50;;;;;;5009681;28;20391;-79
2022/05/16 01:43:24;;;;;;;18.50;16.77;;;19.80;69.40;;;;;;4983985;28;20029;-79
2022/05/16 01:45:50;;;;;;;17.88;16.25;;;19.80;68.60;;;;;;4989781;28;20042;-79
2022/05/16 01:48:17;;;;;;;18.65;16.80;;;19.80;68.90;;;;;;4991955;28;20038;-79
2022/05/16 01:50:43;;;;;;;17.67;16.15;;;19.80;68.80;;;;;;4985894;28;20030;-79
2022/05/16 01:53:09;;;;;;;17.55;15.82;;;19.80;68.80;;;;;;4992709;28;20034;-78
2022/05/16 01:55:35;;;;;;;18.08;16.23;;;19.80;68.60;;;;;;5010050;28;20052;-79
2022/05/16 01:58:02;;;;;;;17.52;15.77;;;19.80;69.40;;;;;;5010635;28;20033;-79
2022/05/16 02:00:30;;;;;;;16.70;15.32;;;19.80;68.80;;;;;;5010030;28;20026;-79
2022/05/16 02:02:56;;;;;;;16.92;15.32;;;19.70;69.10;;;;;;5003047;28;20026;-79
2022/05/16 02:05:23;;;;;;;17.65;15.38;;;19.60;69.00;;;;;;5002497;28;20037;-79
2022/05/16 02:07:50;;;;;;;17.00;15.38;;;19.70;69.10;;;;;;5001025;28;20102;-79
2022/05/16 02:10:17;;;;;;;16.48;14.75;;;19.70;68.80;;;;;;4985422;28;20594;-79
2022/05/16 02:12:43;;;;;;;16.85;15.18;;;19.70;68.60;;;;;;5011407;28;20045;-79
2022/05/16 02:15:13;;;;;;;16.85;15.27;;;19.70;68.50;;;;;;5010972;28;20022;-79
2022/05/16 02:17:39;;;;;;;17.45;14.90;;;19.60;69.00;;;;;;4991698;28;20049;-79
2022/05/16 02:20:06;;;;;;;17.65;15.30;;;19.60;69.00;;;;;;5008384;28;20404;-79
2022/05/16 02:25:16;;;;;;;17.55;15.50;;;19.60;68.90;;;;;;5014958;28;20045;-79
2022/05/16 02:27:46;;;;;;;16.85;15.18;;;19.70;68.70;;;;;;5012520;28;20052;-79
2022/05/16 02:30:13;;;;;;;15.50;14.30;;;19.70;68.60;;;;;;5007906;28;20029;-79
2022/05/16 02:32:39;;;;;;;16.42;15.07;;;19.60;68.80;;;;;;5011514;28;20045;-79
2022/05/16 02:35:05;;;;;;;16.13;14.65;;;19.60;68.80;;;;;;4994732;28;20045;-79
2022/05/16 02:37:31;;;;;;;16.27;14.60;;;19.70;68.70;;;;;;5014016;28;20502;-79
2022/05/16 02:39:57;;;;;;;16.02;14.52;;;19.60;68.70;;;;;;5011747;28;20049;-79
2022/05/16 02:42:24;;;;;;;16.27;14.75;;;19.60;69.00;;;;;;4996939;28;20041;-79
2022/05/16 02:44:52;;;;;;;16.52;14.18;;;19.60;69.10;;;;;;5010179;28;20045;-79
2022/05/16 02:47:20;;;;;;;15.32;13.88;;;19.40;69.30;;;;;;5012871;28;20061;-79
2022/05/16 02:49:47;;;;;;;16.02;14.35;;;19.50;69.50;;;;;;5014214;28;20379;-79
2022/05/16 02:52:13;;;;;;;15.20;13.68;;;19.30;69.70;;;;;;5015007;28;20398;-79
2022/05/16 02:54:39;;;;;;;15.40;13.90;;;19.30;69.90;;;;;;5012214;28;20038;-79
2022/05/16 02:57:05;;;;;;;15.07;13.52;;;19.20;70.00;;;;;;5013657;28;20045;-79
2022/05/16 02:59:32;;;;;;;15.15;13.85;;;19.20;70.30;;;;;;5013384;28;20028;-79
2022/05/16 03:02:00;;;;;;;15.18;13.68;;;19.20;70.40;;;;;;5015004;28;20030;-79
2022/05/16 03:04:26;;;;;;;15.25;13.68;;;19.20;70.30;;;;;;5014304;28;20026;-79
2022/05/16 03:06:52;;;;;;;15.05;13.55;;;19.30;70.50;;;;;;5012932;28;20046;-79
2022/05/16 03:09:18;;;;;;;14.75;13.15;;;19.20;70.40;;;;;;5015022;28;20026;-79
2022/05/16 03:11:45;;;;;;;15.48;14.00;;;19.20;70.50;;;;;;5012984;28;20234;-79
2022/05/16 03:14:11;;;;;;;15.40;13.18;;;19.20;70.40;;;;;;5014634;28;20033;-79
2022/05/16 03:16:38;;;;;;;14.57;13.13;;;19.20;70.40;;;;;;5013485;28;20034;-79
2022/05/16 03:19:04;;;;;;;14.98;13.18;;;19.30;70.40;;;;;;5012534;28;20050;-79
2022/05/16 03:21:30;;;;;;;15.18;13.35;;;19.30;71.00;;;;;;4995737;28;20383;-79
2022/05/16 03:23:57;;;;;;;17.05;13.13;;;19.20;71.30;;;;;;5013471;28;20113;-79
2022/05/16 03:26:23;;;;;;;14.32;12.93;;;19.20;71.30;;;;;;5011699;28;20487;-79
2022/05/16 03:28:50;;;;;;;14.45;12.85;;;19.10;71.70;;;;;;5012351;28;20030;-79
2022/05/16 03:31:16;;;;;;;13.60;12.50;;;19.20;72.00;;;;;;5012407;28;20038;-79
2022/05/16 03:33:42;;;;;;;16.55;12.70;;;19.20;71.70;;;;;;5012415;28;20032;-85
2022/05/16 03:36:09;;;;;;;14.05;12.43;;;19.30;71.60;;;;;;5012315;28;20022;-81
2022/05/16 03:41:20;;;;;;;14.88;12.23;;;19.20;71.90;;;;;;5008706;28;20537;-79
2022/05/16 03:43:46;;;;;;;14.23;12.75;;;19.30;71.50;;;;;;5014430;28;20030;-79
2022/05/16 03:46:12;;;;;;;13.98;12.65;;;19.30;71.70;;;;;;5007965;28;20050;-80
2022/05/16 03:48:38;;;;;;;14.07;12.57;;;19.40;71.20;;;;;;5011346;28;20407;-80
2022/05/16 03:51:05;;;;;;;13.57;12.38;;;19.40;71.20;;;;;;5012115;28;20030;-79
2022/05/16 03:53:31;;;;;;;14.45;12.80;;;19.50;71.10;;;;;;5011931;28;20391;-79
2022/05/16 03:55:57;;;;;;;15.63;12.70;;;19.50;70.90;;;;;;5012082;28;20501;-78
2022/05/16 03:58:23;;;;;;;14.02;12.65;;;19.50;70.70;;;;;;5007189;28;20033;-83
2022/05/16 04:00:50;;;;;;;14.68;12.88;;;19.50;70.70;;;;;;5008815;28;20518;-82
2022/05/16 04:03:16;;;;;;;14.23;12.73;;;19.50;70.80;;;;;;5011834;28;20032;-82
2022/05/16 04:05:42;;;;;;;17.45;12.75;;;19.50;71.10;;;;;;5010559;28;20296;-82
2022/05/16 04:08:08;;;;;;;14.38;12.80;;;19.50;71.00;;;;;;5012445;28;20038;-82
2022/05/16 04:10:34;;;;;;;14.45;12.35;;;19.60;70.50;;;;;;5012732;28;20506;-82
2022/05/16 04:13:00;;;;;;;14.02;12.80;;;19.50;70.50;;;;;;5010965;28;20030;-82
2022/05/16 04:15:26;;;;;;;14.77;13.25;;;19.60;70.10;;;;;;5011360;28;20477;-81
2022/05/16 04:17:53;;;;;;;14.65;13.27;;;19.70;69.80;;;;;;4995119;28;20057;-82
2022/05/16 04:20:19;;;;;;;15.60;14.07;;;19.70;69.60;;;;;;5012795;28;20113;-82
2022/05/16 04:22:45;;;;;;;16.98;13.73;;;19.70;69.40;;;;;;5012374;28;20386;-82
2022/05/16 04:25:14;;;;;;;15.80;14.15;;;19.70;69.10;;;;;;5012101;28;20049;-82
2022/05/16 04:27:40;;;;;;;19.05;13.82;;;19.70;69.00;;;;;;5010925;28;20037;-82
2022/05/16 04:30:07;;;;;;;15.38;13.88;;;19.70;68.80;;;;;;5011061;28;20053;-82
2022/05/16 04:32:34;;;;;;;14.77;13.57;;;19.80;68.70;;;;;;5012330;28;20045;-82
2022/05/16 04:35:01;;;;;;;15.65;14.15;;;19.70;68.70;;;;;;4995479;28;20034;-82
2022/05/16 04:37:32;;;;;;;14.70;13.32;;;19.70;68.60;;;;;;5012131;28;20021;-82
2022/05/16 04:40:02;;;;;;;;;;;19.70;68.50;;;;;;5011780;28;20045;-81
2022/05/16 04:42:46;;;;;;;15.68;12.77;;;19.70;68.70;;;;;;5010960;28;19920;-82
2022/05/16 04:45:21;;;;;;;14.88;12.80;;;19.60;69.10;;;;;;5011675;28;20033;-82
2022/05/16 04:47:50;;;;;;;14.25;13.13;;;19.50;69.40;;;;;;5012197;28;20045;-82
2022/05/16 04:50:19;;;;;;;15.18;13.35;;;19.50;68.90;;;;;;5004412;28;20034;-82
2022/05/16 04:52:46;;;;;;;13.73;12.52;;;19.40;69.00;;;;;;5012019;28;20026;-82
2022/05/16 04:55:12;;;;;;;14.25;12.65;;;19.50;69.30;;;;;;5011318;28;20372;-82
2022/05/16 04:57:39;;;;;;;14.65;13.20;;;19.50;69.10;;;;;;5012431;28;20137;-82
2022/05/16 05:00:06;;;;;;;16.02;13.07;;;19.50;68.90;;;;;;5012691;28;20033;-82
2022/05/16 05:02:32;;;;;;;17.73;13.40;;;19.50;68.80;;;;;;5011389;28;20391;-82
2022/05/16 05:04:59;;;;;;;14.25;12.82;;;19.50;68.60;;;;;;5011808;28;20037;-82
2022/05/16 05:07:25;;;;;;;15.35;13.75;;;19.50;68.40;;;;;;5011219;28;20045;-82
2022/05/16 05:15:20;;;;;;;14.40;12.90;;;19.40;68.50;;;;;;5015779;28;20033;-82
2022/05/16 05:17:46;;;;;;;14.52;12.95;;;19.40;68.80;;;;;;5012368;28;20037;-82
2022/05/16 05:20:13;;;;;;;14.80;13.57;;;19.40;69.30;;;;;;4995214;28;20037;-82
2022/05/16 05:22:43;;;;;;;16.17;14.60;;;19.50;69.50;;;;;;4994847;28;20049;-82
2022/05/16 05:25:11;;;;;;;17.30;15.25;;;19.50;69.30;;;;;;5011801;28;20030;-81
2022/05/16 05:27:39;;;;;;;17.45;15.02;;;19.60;69.40;;;;;;5010936;28;20042;-82
2022/05/16 05:30:07;;;;;;;17.25;15.57;;;19.70;69.20;;;;;;5010972;28;20052;-82
2022/05/16 05:32:33;;;;;;;17.90;16.52;;;19.90;69.20;;;;;;5007965;28;20042;-82
2022/05/16 05:34:59;;;;;;;18.92;17.23;;;20.10;68.50;;;;;;5010962;28;20038;-82
2022/05/16 05:37:25;;;;;;;18.13;16.73;;;20.20;67.80;;;;;;5011641;28;20028;-81
2022/05/16 05:39:52;;;;;;;17.85;16.42;;;20.40;67.40;;;;;;5007551;28;20022;-82
2022/05/16 05:42:19;;;;;;;19.15;17.50;;;20.50;66.70;;;;;;4993040;28;20392;-86
2022/05/16 05:44:45;;;;;;;18.83;17.02;;;20.70;66.30;;;;;;5013462;28;20672;-83
2022/05/16 05:47:11;;;;;;;17.95;16.50;;;20.80;65.50;;;;;;5014219;28;20038;-81
2022/05/16 05:49:37;;;;;;;16.70;15.23;;;20.90;65.20;;;;;;4997304;28;20048;-80
2022/05/16 05:52:03;;;;;;;17.20;15.55;;;21.10;64.40;;;;;;5015296;28;20034;-82
2022/05/16 05:54:29;;;;;;;17.45;15.52;;;21.20;63.50;;;;;;4994196;28;20392;-77
2022/05/16 05:56:55;;;;;;;17.00;15.38;;;21.30;63.40;;;;;;5011327;28;20049;-76
2022/05/16 05:59:23;;;;;;;17.10;15.68;;;21.40;62.70;;;;;;4994516;28;20037;-76
2022/05/16 06:01:50;;;;;;;16.02;14.60;;;21.40;62.50;;;;;;5001286;28;20490;-79
2022/05/16 06:04:16;;;;;;;17.27;15.95;;;21.60;62.10;;;;;;4994731;28;20097;-78
2022/05/16 06:06:43;;;;;;;16.58;15.32;;;21.70;61.80;;;;;;5014457;28;20042;-76
2022/05/16 06:09:09;;;;;;;16.60;15.13;;;21.80;61.30;;;;;;5010884;28;20051;-76
2022/05/16 06:11:35;;;;;;;18.02;16.42;;;21.90;60.90;;;;;;5011367;28;20034;-76
2022/05/16 06:14:01;;;;;;;16.38;15.05;;;22.00;60.60;;;;;;5013158;28;20044;-78
2022/05/16 06:16:28;;;;;;;17.17;15.52;;;22.10;60.40;;;;;;5011542;28;20026;-78
2022/05/16 06:18:54;;;;;;;17.63;16.13;;;22.20;60.10;;;;;;5012979;28;20040;-77
2022/05/16 06:21:20;;;;;;;16.60;15.40;;;22.30;59.70;;;;;;5012122;28;20038;-76
2022/05/16 06:23:46;;;;;;;18.08;16.33;;;22.40;59.70;;;;;;5009555;28;20368;-77
2022/05/16 06:26:12;;;;;;;17.80;16.30;;;22.40;59.20;;;;;;4995211;28;20034;-76
2022/05/16 06:28:39;;;;;;;17.83;16.33;;;22.40;59.10;;;;;;5010397;28;20046;-77
2022/05/16 06:31:05;;;;;;;17.40;16.00;;;22.50;59.10;;;;;;5012092;28;20034;-76
2022/05/16 06:33:32;;;;;;;17.67;16.05;;;22.60;59.30;;;;;;5010089;28;20034;-79
2022/05/16 06:35:58;;;;;;;17.90;16.45;;;22.70;59.00;;;;;;4993322;28;20046;-76
2022/05/16 06:38:26;;;;;;;18.20;16.80;;;22.80;58.90;;;;;;5009618;28;20045;-76
2022/05/16 06:40:53;;;;;;;17.73;16.17;;;22.90;58.80;;;;;;5008872;28;20034;-78
2022/05/16 06:43:20;;;;;;;17.52;16.33;;;23.10;58.30;;;;;;5010529;28;20210;-77
2022/05/16 06:45:46;;;;;;;18.55;17.05;;;23.30;58.30;;;;;;5011345;28;20045;-78
2022/05/16 06:48:12;;;;;;;17.77;16.35;;;23.40;57.70;;;;;;4997742;28;20053;-79
2022/05/16 06:50:38;;;;;;;17.45;16.05;;;23.60;56.90;;;;;;5008007;28;20048;-77
2022/05/16 06:53:06;;;;;;;17.20;15.90;;;23.80;56.20;;;;;;5007175;28;20033;-77
2022/05/16 06:55:32;;;;;;;17.15;15.82;;;23.70;55.80;;;;;;5003934;28;20033;-79
2022/05/16 06:57:58;;;;;;;17.23;15.50;;;23.60;55.80;;;;;;5010142;28;20034;-78
2022/05/16 07:00:26;;;;;;;16.83;15.52;;;23.60;55.80;;;;;;5000290;28;20505;-76
2022/05/16 07:02:52;;;;;;;16.33;14.93;;;23.40;55.70;;;;;;5005610;28;20037;-76
2022/05/16 07:05:18;;;;;;;16.77;15.35;;;23.30;55.90;;;;;;5010187;28;20036;-78
2022/05/16 07:07:44;;;;;;;15.90;14.60;;;23.20;56.20;;;;;;5009108;28;20506;-79
2022/05/16 07:10:11;;;;;;;16.17;14.65;;;23.00;56.40;;;;;;5010050;28;20034;-79
2022/05/16 07:12:37;;;;;;;17.73;15.85;;;22.90;57.10;;;;;;4974836;28;20042;-79
2022/05/16 07:15:04;;;;;;;17.27;15.68;;;22.90;57.10;;;;;;5007082;28;20038;-78
2022/05/16 07:17:30;;;;;;;16.50;15.10;;;22.80;57.00;;;;;;5009473;28;20030;-75
2022/05/16 07:19:56;;;;;;;15.48;14.48;;;22.70;57.30;;;;;;5009086;28;20479;-75
2022/05/16 07:22:22;;;;;;;16.25;14.95;;;22.60;57.50;;;;;;4994972;28;20045;-77
2022/05/16 07:24:48;;;;;;;16.13;14.57;;;22.50;57.70;;;;;;5006277;28;20034;-77
2022/05/16 07:29:59;;;;;;;16.90;15.35;;;22.40;58.10;;;;;;5010263;28;20033;-81
2022/05/16 07:32:42;;;;;;;15.40;14.27;;;22.20;58.60;;;;;;5008810;28;20403;-80
2022/05/16 07:35:19;;;;;;;15.35;14.07;;;22.20;59.80;;;;;;4992079;28;20035;-76
2022/05/16 07:37:45;;;;;;;15.80;14.45;;;22.20;59.70;;;;;;4993373;28;20049;-75
2022/05/16 07:40:12;;;;;;;15.32;13.85;;;22.20;59.80;;;;;;5009681;28;20482;-84
2022/05/16 07:42:38;;;;;;;15.15;13.85;;;22.20;60.00;;;;;;4990821;28;20046;-85
2022/05/16 07:45:06;;;;;;;15.77;14.43;;;22.20;59.90;;;;;;4989348;28;20026;-84
2022/05/16 07:47:32;;;;;;;14.82;13.80;;;22.30;59.70;;;;;;5002300;28;20030;-84
2022/05/16 07:49:58;;;;;;;15.32;13.95;;;22.30;59.70;;;;;;5009814;28;20033;-83
2022/05/16 07:52:25;;;;;;;15.75;14.18;;;22.40;59.80;;;;;;5008974;28;20373;-83
2022/05/16 07:54:51;;;;;;;15.60;14.15;;;22.40;59.60;;;;;;4988781;28;20041;-83
2022/05/16 07:57:19;;;;;;;16.55;15.20;;;22.50;59.60;;;;;;5008214;28;20044;-83
2022/05/16 07:59:46;;;;;;;16.38;14.90;;;22.60;59.50;;;;;;5009300;28;20041;-84
2022/05/16 08:02:13;;;;;;;17.27;15.70;;;22.70;59.60;;;;;;5010021;28;20037;-83
2022/05/16 08:04:39;;;;;;;16.77;15.10;;;22.90;59.30;;;;;;5009077;28;20026;-83
2022/05/16 08:07:06;;;;;;;17.05;15.65;;;23.10;58.50;;;;;;5010373;28;20537;-83
2022/05/16 08:12:31;;;;;;;17.13;15.88;;;23.30;57.30;;;;;;5008547;28;20029;-83
2022/05/16 08:14:58;;;;;;;17.03;15.63;;;23.40;57.50;;;;;;5012566;28;20041;-83
2022/05/16 08:17:24;;;;;;;17.13;15.65;;;23.50;58.30;;;;;;5008352;28;20277;-84
2022/05/16 08:19:50;;;;;;;18.08;16.58;;;23.50;58.40;;;;;;4990242;28;20038;-84
2022/05/16 08:22:17;;;;;;;19.27;17.70;;;23.60;60.80;;;;;;5009186;28;20040;-81
2022/05/16 08:24:44;;;;;;;18.40;16.80;;;23.80;57.90;;;;;;4985468;28;20034;-84
2022/05/16 08:27:10;;;;;;;19.48;18.08;;;23.90;57.30;;;;;;4994974;28;20038;-81
2022/05/16 08:29:36;;;;;;;20.42;19.05;;;24.20;56.80;;;;;;5012240;28;20071;-81
2022/05/16 08:32:03;;;;;;;20.38;18.85;;;24.40;56.10;;;;;;4995005;28;20037;-82
2022/05/16 08:34:30;;;;;;;19.13;17.60;;;24.60;55.60;;;;;;5010923;28;20045;-82
2022/05/16 08:39:56;;;;;;;19.38;17.88;;;24.70;56.70;;;;;;5013229;28;20037;-82
2022/05/16 08:42:26;;;;;;;18.90;17.48;;;24.60;56.70;;;;;;5009533;28;20495;-88
2022/05/16 08:44:56;;;;;;;19.77;18.08;;;24.60;57.20;;;;;;5012132;28;20384;-83
2022/05/16 08:47:44;;;;;;;18.90;17.50;;;24.60;56.60;;;;;;5010845;28;20034;-81
2022/05/16 08:50:24;;;;;;;18.60;17.35;;;24.70;57.70;;;;;;5001446;28;20030;-80
2022/05/16 08:53:02;;;;;;;18.70;17.40;;;24.80;55.90;;;;;;5008932;28;20037;-84
2022/05/16 08:55:39;;;;;;;18.92;17.63;;;24.70;53.80;;;;;;5000751;28;20041;-82
2022/05/16 08:58:12;;;;;;;18.40;17.20;;;24.80;54.10;;;;;;4994875;28;20042;-82
2022/05/16 09:01:02;;;;;;;18.90;17.30;;;24.80;54.50;;;;;;4973671;28;20034;-81
2022/05/16 09:03:35;;;;;;;18.63;17.42;;;24.60;53.50;;;;;;5018461;28;20034;-81
2022/05/16 09:06:16;;;;;;;19.20;17.30;;;24.30;53.20;;;;;;5028993;28;20056;-84
2022/05/16 09:09:10;;;;;;;18.52;16.92;;;24.40;54.20;;;;;;4992370;28;20050;-86
2022/05/16 09:11:47;;;;;;;18.23;16.88;;;24.50;54.00;;;;;;5016295;28;20052;-84
2022/05/16 09:14:52;;;;;;;17.13;15.93;;;24.60;52.70;;;;;;5026204;28;20026;-82
2022/05/16 09:17:39;;;;;;;16.48;15.18;;;24.00;52.60;;;;;;5013715;28;20045;-83
2022/05/16 09:20:19;;;;;;;16.80;15.38;;;23.80;54.50;;;;;;5006200;28;20025;-81
2022/05/16 09:23:12;;;;;;;17.10;15.75;;;23.90;54.70;;;;;;5003309;28;20048;-78
2022/05/16 09:25:41;;;;;;;16.98;15.40;;;24.00;52.90;;;;;;5009125;28;20030;-77
2022/05/16 09:30:55;;;;;;;15.93;14.52;;;23.40;53.60;;;;;;5015348;28;20037;-80
2022/05/16 09:33:24;;;;;;;16.50;15.20;;;23.40;54.70;;;;;;5011242;28;20033;-81
2022/05/16 09:36:04;;;;;;;16.35;14.70;;;23.50;54.00;;;;;;5008998;28;20045;-78
2022/05/16 09:38:31;;;;;;;16.90;15.60;;;23.70;54.00;;;;;;5008461;28;20022;-76
2022/05/16 09:41:03;;;;;;;17.33;16.08;;;23.80;54.20;;;;;;4991986;28;20042;-76
2022/05/16 09:43:42;;;;;;;17.48;15.50;;;24.00;53.10;;;;;;5009344;28;20042;-77
2022/05/16 09:46:26;;;;;;;17.65;16.13;;;24.00;52.50;;;;;;4991194;28;20030;-77
2022/05/16 09:49:03;;;;;;;18.60;17.17;;;24.10;51.80;;;;;;5010306;28;20041;-79
2022/05/16 09:51:30;;;;;;;17.38;15.90;;;24.00;51.30;;;;;;5012518;28;20029;-81
2022/05/16 09:54:18;;;;;;;19.00;17.73;;;24.10;51.70;;;;;;5010925;28;20049;-82
2022/05/16 09:56:56;;;;;;;20.27;17.35;;;24.40;50.40;;;;;;4995561;28;20204;-78
2022/05/16 09:59:42;;;;;;;17.77;16.38;;;24.50;50.70;;;;;;5012718;28;20486;-79
2022/05/16 10:02:10;;;;;;;16.42;14.98;;;24.60;50.20;;;;;;5007524;28;20042;-81
2022/05/16 10:04:41;;;;;;;16.30;15.18;;;24.30;50.10;;;;;;5010692;28;20252;-80
2022/05/16 10:07:08;;;;;;;15.73;14.45;;;24.20;50.00;;;;;;5001987;28;20034;-80
2022/05/16 10:09:48;;;;;;;16.83;15.80;;;24.10;51.40;;;;;;5011633;28;20422;-76
2022/05/16 10:12:18;;;;;;;17.15;15.88;;;24.20;51.20;;;;;;5008273;28;20029;-79
2022/05/16 10:14:44;;;;;;;16.77;15.50;;;24.20;51.70;;;;;;5010403;28;20052;-79
2022/05/16 10:17:14;;;;;;;17.00;15.82;;;24.30;50.70;;;;;;5009700;28;20045;-79
2022/05/16 10:19:40;;;;;;;17.93;16.77;;;24.40;51.00;;;;;;4995586;28;20046;-80
2022/05/16 10:22:13;;;;;;;20.08;18.67;;;24.50;51.10;;;;;;5010176;28;20284;-82
2022/05/16 10:24:45;;;;;;;19.80;18.40;;;24.80;49.30;;;;;;5012083;28;20038;-80
2022/05/16 10:27:12;;;;;;;17.88;16.67;;;24.70;47.80;;;;;;4992981;28;20049;-80
2022/05/16 10:29:41;;;;;;;17.95;16.55;;;24.60;49.30;;;;;;5009989;28;20034;-82
2022/05/16 10:35:11;;;;;;;18.33;17.02;;;24.60;51.10;;;;;;5012488;28;20045;-81
2022/05/16 10:37:40;;;;;;;19.38;17.90;;;24.80;50.80;;;;;;5009043;28;20403;-86
2022/05/16 10:40:21;;;;;;;19.08;17.88;;;24.80;49.80;;;;;;4995121;28;20045;-81
2022/05/16 10:42:53;;;;;;;21.60;20.13;;;25.00;50.00;;;;;;5006463;28;20022;-84
2022/05/16 10:45:21;;;;;;;22.63;21.23;;;25.30;50.40;;;;;;5002549;28;20037;-86
2022/05/16 10:48:14;;;;;;;25.05;23.48;;;25.60;49.00;;;;;;5002505;28;20030;-81
2022/05/16 10:50:47;;;;;;;26.05;24.20;;;25.90;48.90;;;;;;5003077;28;20041;-83
2022/05/16 10:53:18;;;;;;;26.30;24.80;;;26.10;45.80;;;;;;5010786;28;20026;-85
2022/05/16 10:56:09;;;;;;;1999.90;999.90;;;26.20;46.80;;;;;;5010437;28;20038;-84
2022/05/16 10:59:02;;;;;;;1999.90;999.90;;;26.60;46.50;;;;;;5004304;28;20045;-86
2022/05/16 11:01:33;;;;;;;1999.90;999.90;;;26.90;45.70;;;;;;4994576;28;20510;-86
2022/05/16 11:04:08;;;;;;;1999.90;999.90;;;27.10;44.60;;;;;;4996009;28;20049;-87
2022/05/16 11:06:50;;;;;;;1999.90;999.90;;;27.10;43.10;;;;;;5006440;28;20089;-88
2022/05/16 11:09:44;;;;;;;1999.90;999.90;;;27.10;43.50;;;;;;5005543;28;20410;-83
2022/05/16 11:12:38;;;;;;;1999.90;999.90;;;27.20;44.00;;;;;;5009885;28;20045;-83
2022/05/16 11:15:12;;;;;;;27.25;25.75;;;27.10;45.50;;;;;;5007842;28;20399;-82
2022/05/16 11:17:43;;;;;;;1015.20;514.28;;;27.00;46.00;;;;;;5005567;28;20033;-86
2022/05/16 11:20:49;;;;;;;27.75;26.00;;;27.10;46.30;;;;;;5004656;28;20022;-85
2022/05/16 11:23:15;;;;;;;29.58;27.80;;;27.00;45.30;;;;;;5010294;28;20030;-84
2022/05/16 11:26:11;;;;;;;1999.90;999.90;;;27.10;46.20;;;;;;5010313;28;20502;-83
2022/05/16 11:31:36;;;;;;;1999.90;999.90;;;27.50;45.40;;;;;;5011818;28;20030;-83
2022/05/16 11:34:02;;;;;;;1999.90;999.90;;;27.60;44.80;;;;;;5010781;28;20034;-84
2022/05/16 11:36:38;;;;;;;1999.90;999.90;;;27.60;43.30;;;;;;4994221;28;20036;-85
2022/05/16 11:39:32;;;;;;;1999.90;999.90;;;27.70;42.90;;;;;;5008019;28;20037;-85
2022/05/16 11:42:20;;;;;;;1999.90;999.90;;;27.80;40.40;;;;;;4993261;28;20050;-83
2022/05/16 11:45:28;;;;;;;1999.90;999.90;;;27.60;40.90;;;;;;4986470;28;20045;-82
2022/05/16 11:48:20;;;;;;;1999.90;999.90;;;27.60;41.70;;;;;;5005043;28;20038;-82
2022/05/16 11:51:09;;;;;;;1999.90;999.90;;;27.40;41.90;;;;;;5005187;28;20034;-82
2022/05/16 11:53:50;;;;;;;1999.90;999.90;;;27.40;41.80;;;;;;5010196;28;20042;-82
2022/05/16 12:02:26;;;;;;;1999.90;999.90;;;28.20;41.30;;;;;;5009950;28;20030;-83
2022/05/16 12:04:54;;;;;;;1999.90;999.90;;;28.50;39.90;;;;;;5009403;28;20410;-82
2022/05/16 12:07:36;;;;;;;1999.90;999.90;;;28.10;39.10;;;;;;4991957;28;20495;-83
2022/05/16 12:10:11;;;;;;;1999.90;999.90;;;28.10;39.30;;;;;;5009594;28;20053;-82
2022/05/16 12:12:44;;;;;;;1999.90;999.90;;;28.20;40.00;;;;;;5010702;28;20368;-83
2022/05/16 12:15:16;;;;;;;1999.90;999.90;;;28.40;40.40;;;;;;5004843;28;20041;-83
2022/05/16 12:17:52;;;;;;;1999.90;999.90;;;28.40;38.80;;;;;;5009023;28;20483;-82
2022/05/16 12:20:44;;;;;;;1999.90;999.90;;;28.40;38.60;;;;;;5000500;28;20403;-82
2022/05/16 12:23:11;;;;;;;1999.90;999.90;;;28.50;37.50;;;;;;5008411;28;20034;-82
2022/05/16 12:25:38;;;;;;;1999.90;999.90;;;28.40;38.10;;;;;;5009100;28;20392;-82
2022/05/16 12:28:15;;;;;;;1999.90;999.90;;;28.60;37.70;;;;;;5003792;28;20332;-82
2022/05/16 12:30:42;;;;;;;1999.90;999.90;;;28.70;38.20;;;;;;5009233;28;20487;-82
2022/05/16 12:33:42;;;;;;;1999.90;999.90;;;29.00;37.90;;;;;;5007699;28;20038;-82
2022/05/16 12:36:15;;;;;;;1999.90;999.90;;;29.20;36.50;;;;;;5009190;28;20041;-82
2022/05/16 12:38:41;;;;;;;1999.90;999.90;;;28.70;37.00;;;;;;5005988;28;20033;-82
2022/05/16 12:41:39;;;;;;;1999.90;999.90;;;28.80;37.10;;;;;;5006745;28;20052;-82
2022/05/16 12:44:29;;;;;;;1999.90;999.90;;;28.90;35.90;;;;;;5009143;28;20065;-82
2022/05/16 12:47:26;;;;;;;1999.90;999.90;;;28.20;36.90;;;;;;5007231;28;20037;-81
2022/05/16 12:50:16;;;;;;;1999.90;999.90;;;28.10;39.20;;;;;;5003842;28;20056;-82
2022/05/16 12:53:01;;;;;;;1999.90;999.90;;;28.40;39.40;;;;;;4996616;28;20034;-82
2022/05/16 12:55:54;;;;;;;1999.90;999.90;;;28.50;38.60;;;;;;5008917;28;20030;-82
2022/05/16 12:58:41;;;;;;;1999.90;999.90;;;28.60;38.30;;;;;;5007588;28;20140;-82
2022/05/16 13:01:13;;;;;;;1999.90;999.90;;;28.60;37.70;;;;;;5004935;28;20038;-82
2022/05/16 13:03:51;;;;;;;1999.90;999.90;;;28.60;38.10;;;;;;5008966;28;20038;-78
2022/05/16 13:06:43;;;;;;;1999.90;999.90;;;28.30;37.30;;;;;;5009503;28;20399;-79
2022/05/16 13:09:47;;;;;;;1999.90;999.90;;;28.30;38.40;;;;;;5006763;28;20053;-79
2022/05/16 13:12:14;;;;;;;1999.90;999.90;;;28.40;38.00;;;;;;5008709;28;20046;-78
2022/05/16 13:14:47;;;;;;;1999.90;999.90;;;28.40;38.50;;;;;;5006899;28;20471;-78
2022/05/16 13:17:36;;;;;;;1999.90;999.90;;;28.50;38.10;;;;;;5006690;28;20038;-78
2022/05/16 13:20:07;;;;;;;1999.90;999.90;;;28.40;38.00;;;;;;5004498;28;20515;-79